首页
METAR-TAF:

METAR-TAF

机场 :

米德蘭, 得克萨斯州, 美国

纬度: 31-56-52N, 经度: 102-12-31W, 海拔: 875米

当前天气观测

该预报发布于1小时和2分钟前的10:53 UTC
风速8节,风向南转南东
温度 24°C
湿度 69%
气压 1015 hPa
能見度: 16.1公里
天空无云

METAR: KMAF 251053Z AUTO 16008KT 10SM CLR 24/18 A2996 RMK AO2 SLP092 T02390183

时间: 06:55 (11:55 UTC)

预报

该预报发布于35分钟前的11:20 UTC
预报有效从25日的 12点(UTC)到 26日的 12点(UTC)
风速10节,风向
能見度: 10公里
少量云层高于9000英尺

TAF: KMAF 251120Z 2512/2612 17010KT P6SM FEW090

超过4000个机场的气象观测和天气预报(METAR&TAF报告)。

可查询的气象台以黄色和红色小点在地图上表示。

将鼠标移到小点上方,可查看气象台名称。

然后点击查看天气观测和预报。

如需切换地图:点击带黑十字的绿色按钮放大地图;点击带横线的绿色按钮缩小地图;或者点击绿色箭头查看邻近地区的地图。


METAR-TAF: